X  Cerrar Datos meteorológicos de aviación METAR     LBPD Plovdiv International Airport
Temperatura
36°C Temperatura
14°C Punto de rocío
27% Humedad



Viento
21 KM/H
13 MPH
6 M/S
11 NUDO



80°
E
Condiciones actuales

Parcialmente nublado Parcialmente nublado
Presión 1006.77 (hPa) - 29.73 (inHg)
Visibilidad 6 (milla) - 9.7 (km)
Aeropuerto
Código de aeropuerto LBPD

localidad: Plovdiv International Airport
Distancia: 14 (km)

Metar:
LBPD 201630Z AUTO 08011KT 9999 FEW210/// 36/14 Q1007 NOSIG

Hora: 20-07-2024 19:30 EEST